createdAt,value
2018-03-26T00:02:11.229Z,8.40
2018-03-26T00:04:38.691Z,8.40
2018-03-26T00:07:06.394Z,8.40
2018-03-26T00:09:34.260Z,8.50
2018-03-26T00:12:02.109Z,8.50
2018-03-26T00:14:29.586Z,8.50
2018-03-26T00:16:57.128Z,8.50
2018-03-26T00:19:24.583Z,8.50
2018-03-26T00:21:52.042Z,8.50
2018-03-26T00:24:19.476Z,8.50
2018-03-26T00:26:46.932Z,8.50
2018-03-26T00:29:14.397Z,8.50
2018-03-26T00:31:41.961Z,8.50
2018-03-26T00:34:09.423Z,8.50
2018-03-26T00:36:36.874Z,8.60
2018-03-26T00:39:04.323Z,8.60
2018-03-26T00:41:31.781Z,8.60
2018-03-26T00:43:59.270Z,8.60
2018-03-26T00:46:26.724Z,8.60
2018-03-26T00:48:54.188Z,8.60
2018-03-26T00:51:21.669Z,8.60
2018-03-26T00:53:49.112Z,8.50
2018-03-26T00:56:16.599Z,8.50
2018-03-26T00:58:44.108Z,8.50
2018-03-26T01:01:11.947Z,8.50
2018-03-26T01:03:39.410Z,8.50
2018-03-26T01:06:06.864Z,8.50
2018-03-26T01:08:34.323Z,8.60
2018-03-26T01:11:01.876Z,8.50
2018-03-26T01:13:29.323Z,8.50
2018-03-26T01:15:56.811Z,8.50
2018-03-26T01:18:24.289Z,8.50
2018-03-26T01:20:51.744Z,8.40
2018-03-26T01:23:19.203Z,8.40
2018-03-26T01:25:46.633Z,8.40
2018-03-26T01:28:14.296Z,8.40
2018-03-26T01:30:41.762Z,8.40
2018-03-26T01:33:09.208Z,8.40
2018-03-26T01:35:36.645Z,8.40
2018-03-26T01:38:04.111Z,8.40
2018-03-26T01:40:31.558Z,8.40
2018-03-26T01:42:59.173Z,8.40
2018-03-26T01:45:26.603Z,8.40
2018-03-26T01:47:54.447Z,8.40
2018-03-26T01:50:21.873Z,8.40
2018-03-26T01:52:49.309Z,8.30
2018-03-26T01:55:16.741Z,8.30
2018-03-26T01:57:44.192Z,8.20
2018-03-26T02:00:11.620Z,8.20
2018-03-26T02:02:39.109Z,8.30
2018-03-26T02:05:06.530Z,8.30
2018-03-26T02:07:34.004Z,8.30
2018-03-26T02:10:01.437Z,8.30
2018-03-26T02:12:29.708Z,8.20
2018-03-26T02:14:57.133Z,8.30
2018-03-26T02:17:24.587Z,8.30
2018-03-26T02:19:52.026Z,8.30
2018-03-26T02:22:19.867Z,8.30
2018-03-26T02:24:47.305Z,8.20
2018-03-26T02:27:14.749Z,8.30
2018-03-26T02:29:42.196Z,8.30
2018-03-26T02:32:09.634Z,8.20
2018-03-26T02:34:37.086Z,8.20
2018-03-26T02:37:04.909Z,8.20
2018-03-26T02:39:32.340Z,8.20
2018-03-26T02:41:59.824Z,8.20
2018-03-26T02:44:27.231Z,8.20
2018-03-26T02:46:54.664Z,8.20
2018-03-26T02:49:22.490Z,8.10
2018-03-26T02:51:49.925Z,8.10
2018-03-26T02:54:17.370Z,8.10
2018-03-26T02:56:44.801Z,8.20
2018-03-26T02:59:12.624Z,8.20
2018-03-26T03:01:40.069Z,8.20
2018-03-26T03:04:07.495Z,8.10
2018-03-26T03:06:34.940Z,8.10
2018-03-26T03:09:02.764Z,8.10
2018-03-26T03:11:30.213Z,8.10
2018-03-26T03:13:57.865Z,8.10
2018-03-26T03:18:59.217Z,8.10
2018-03-26T03:21:26.657Z,8.10
2018-03-26T03:23:54.105Z,8.10
2018-03-26T03:26:21.941Z,8.10
2018-03-26T03:28:49.385Z,8.20
2018-03-26T03:31:16.818Z,8.10
2018-03-26T03:33:44.253Z,8.20
2018-03-26T03:36:11.704Z,8.20
2018-03-26T03:38:39.539Z,8.10
2018-03-26T03:41:06.984Z,8.10
2018-03-26T03:43:34.429Z,8.10
2018-03-26T03:46:01.868Z,8.10
2018-03-26T03:48:29.303Z,8.20
2018-03-26T03:50:56.746Z,8.10
2018-03-26T03:53:24.587Z,8.20
2018-03-26T03:55:52.025Z,8.20
2018-03-26T03:58:19.462Z,8.10
2018-03-26T04:00:46.901Z,8.20
2018-03-26T04:03:14.349Z,8.20
2018-03-26T04:05:41.787Z,8.20
2018-03-26T04:08:09.620Z,8.10
2018-03-26T04:10:37.060Z,8.10
2018-03-26T04:13:04.519Z,8.10
2018-03-26T04:15:31.964Z,8.10
2018-03-26T04:17:59.393Z,8.10
2018-03-26T04:20:26.830Z,8.00
2018-03-26T04:22:54.268Z,8.00
2018-03-26T04:25:21.704Z,8.00
2018-03-26T04:27:49.135Z,8.00
2018-03-26T04:30:16.564Z,8.00
2018-03-26T04:32:44.012Z,8.00
2018-03-26T04:35:11.443Z,8.00
2018-03-26T04:37:38.877Z,8.10
2018-03-26T04:40:06.312Z,8.10
2018-03-26T04:42:33.758Z,8.10
2018-03-26T04:45:01.196Z,8.00
2018-03-26T04:47:29.037Z,8.00
2018-03-26T04:49:56.468Z,8.00
2018-03-26T04:52:23.919Z,8.10
2018-03-26T04:54:51.341Z,8.10
2018-03-26T04:57:19.173Z,8.10
2018-03-26T04:59:46.626Z,8.00
2018-03-26T05:02:14.100Z,8.00
2018-03-26T05:04:41.490Z,8.00
2018-03-26T05:07:08.929Z,8.10
2018-03-26T05:09:36.367Z,8.00
2018-03-26T05:12:03.836Z,7.90
2018-03-26T05:14:31.658Z,8.00
2018-03-26T05:16:59.097Z,8.00
2018-03-26T05:19:26.545Z,7.90
2018-03-26T05:21:53.980Z,7.90
2018-03-26T05:24:21.417Z,7.80
2018-03-26T05:26:49.287Z,7.80
2018-03-26T05:29:16.733Z,7.80
2018-03-26T05:31:44.187Z,7.80
2018-03-26T05:34:11.629Z,7.70
2018-03-26T05:36:39.052Z,7.50
2018-03-26T05:39:06.504Z,7.40
2018-03-26T05:41:33.933Z,7.30
2018-03-26T05:44:01.363Z,7.30
2018-03-26T05:46:28.836Z,7.20
2018-03-26T05:48:56.260Z,7.20
2018-03-26T05:51:23.688Z,7.20
2018-03-26T05:53:51.128Z,7.20
2018-03-26T05:56:18.568Z,7.10
2018-03-26T05:58:46.633Z,7.20
2018-03-26T06:01:14.068Z,7.20
2018-03-26T06:03:41.509Z,7.40
2018-03-26T06:06:09.084Z,7.40
2018-03-26T06:08:36.541Z,7.60
2018-03-26T06:11:03.978Z,7.60
2018-03-26T06:13:32.198Z,7.50
2018-03-26T06:15:59.634Z,7.70
2018-03-26T06:18:27.072Z,7.70
2018-03-26T06:20:54.510Z,7.80
2018-03-26T06:23:21.956Z,7.80
2018-03-26T06:25:49.388Z,7.70
2018-03-26T06:28:17.224Z,7.80
2018-03-26T06:30:44.674Z,7.80
2018-03-26T06:33:12.105Z,7.80
2018-03-26T06:35:39.540Z,7.70
2018-03-26T06:38:12.705Z,7.40
2018-03-26T06:40:40.527Z,7.20
2018-03-26T06:43:07.969Z,7.20
2018-03-26T06:45:35.404Z,7.10
2018-03-26T06:48:02.888Z,7.10
2018-03-26T06:50:30.323Z,7.10
2018-03-26T06:52:57.756Z,7.10
2018-03-26T06:55:26.066Z,7.10
2018-03-26T06:57:53.505Z,7.10
2018-03-26T07:00:20.936Z,7.10
2018-03-26T07:02:48.781Z,7.10
2018-03-26T07:05:16.209Z,7.10
2018-03-26T07:07:43.701Z,7.10
2018-03-26T07:10:11.118Z,7.10
2018-03-26T07:12:38.605Z,7.10
2018-03-26T07:15:06.041Z,7.10
2018-03-26T07:17:33.498Z,7.10
2018-03-26T07:20:00.923Z,7.10
2018-03-26T07:22:28.363Z,7.10
2018-03-26T07:24:55.810Z,7.00
2018-03-26T07:27:23.331Z,7.10
2018-03-26T07:29:50.746Z,7.10
2018-03-26T07:32:18.179Z,7.10
2018-03-26T07:34:45.634Z,7.10
2018-03-26T07:37:13.063Z,7.00
2018-03-26T07:39:40.511Z,7.00
2018-03-26T07:42:07.932Z,7.10
2018-03-26T07:44:35.372Z,7.10
2018-03-26T07:47:03.200Z,7.10
2018-03-26T07:49:30.645Z,7.10
2018-03-26T07:51:58.129Z,7.10
2018-03-26T07:54:25.520Z,7.20
2018-03-26T07:56:52.958Z,7.10
2018-03-26T07:59:20.396Z,7.10
2018-03-26T08:01:47.833Z,7.20
2018-03-26T08:04:15.280Z,7.20
2018-03-26T08:06:42.705Z,7.30
2018-03-26T08:09:10.148Z,7.30
2018-03-26T08:11:37.971Z,7.30
2018-03-26T08:14:05.412Z,7.30
2018-03-26T08:16:32.844Z,7.30
2018-03-26T08:19:00.280Z,7.30
2018-03-26T08:21:27.792Z,7.30
2018-03-26T08:23:55.220Z,7.40
2018-03-26T08:26:22.673Z,7.40
2018-03-26T08:28:50.104Z,7.40
2018-03-26T08:31:17.953Z,7.50
2018-03-26T08:33:45.425Z,7.50
2018-03-26T08:36:12.866Z,7.40
2018-03-26T08:38:40.313Z,7.50
2018-03-26T08:41:07.745Z,7.50
2018-03-26T08:43:35.189Z,7.60
2018-03-26T08:46:02.625Z,7.60
2018-03-26T08:48:30.065Z,7.60
2018-03-26T08:50:57.896Z,7.70
2018-03-26T08:53:25.388Z,7.70
2018-03-26T08:55:52.812Z,7.80
2018-03-26T08:58:20.254Z,7.90
2018-03-26T09:00:47.751Z,7.90
2018-03-26T09:03:15.190Z,7.90
2018-03-26T09:05:42.630Z,8.10
2018-03-26T09:08:10.081Z,8.20
2018-03-26T09:10:37.500Z,8.20
2018-03-26T09:13:04.932Z,8.30
2018-03-26T09:15:32.418Z,8.30
2018-03-26T09:17:59.917Z,8.30
2018-03-26T09:20:27.362Z,8.30
2018-03-26T09:22:54.872Z,8.30
2018-03-26T09:25:22.305Z,8.30
2018-03-26T09:27:49.735Z,8.30
2018-03-26T09:30:17.208Z,8.30
2018-03-26T09:32:44.640Z,8.40
2018-03-26T09:35:12.081Z,8.40
2018-03-26T09:37:39.513Z,8.30
2018-03-26T09:40:06.968Z,8.40
2018-03-26T09:42:34.409Z,8.30
2018-03-26T09:45:01.861Z,8.40
2018-03-26T09:47:29.294Z,8.40
2018-03-26T09:49:56.748Z,8.50
2018-03-26T09:52:24.184Z,8.50
2018-03-26T09:54:51.681Z,8.60
2018-03-26T09:57:19.108Z,8.60
2018-03-26T09:59:46.569Z,8.50
2018-03-26T10:02:14.009Z,8.50
2018-03-26T10:04:41.448Z,8.50
2018-03-26T10:07:08.890Z,8.50
2018-03-26T10:09:36.319Z,8.50
2018-03-26T10:12:03.760Z,8.60
2018-03-26T10:14:31.217Z,8.50
2018-03-26T10:16:58.665Z,8.50
2018-03-26T10:19:26.340Z,8.50
2018-03-26T10:21:53.785Z,8.50
2018-03-26T10:24:21.281Z,8.50
2018-03-26T10:26:48.710Z,8.60
2018-03-26T10:29:16.140Z,8.60
2018-03-26T10:31:43.568Z,8.50
2018-03-26T10:34:11.004Z,8.50
2018-03-26T10:36:38.449Z,8.70
2018-03-26T10:39:05.908Z,8.70
2018-03-26T10:41:33.336Z,8.90
2018-03-26T10:44:00.774Z,8.90
2018-03-26T10:46:28.195Z,8.90
2018-03-26T10:48:56.035Z,8.90
2018-03-26T10:51:23.460Z,8.90
2018-03-26T10:53:50.909Z,8.80
2018-03-26T10:56:18.335Z,8.80
2018-03-26T10:58:46.172Z,8.70
2018-03-26T11:01:13.632Z,8.70
2018-03-26T11:03:41.081Z,9.00
2018-03-26T11:06:08.510Z,9.00
2018-03-26T11:08:35.973Z,9.00
2018-03-26T11:11:03.448Z,9.10
2018-03-26T11:13:30.848Z,9.10
2018-03-26T11:15:58.684Z,8.70
2018-03-26T11:18:26.123Z,8.80
2018-03-26T11:20:53.574Z,8.90
2018-03-26T11:23:21.005Z,9.00
2018-03-26T11:25:48.453Z,8.90
2018-03-26T11:28:15.879Z,8.80
2018-03-26T11:30:43.320Z,8.80
2018-03-26T11:33:10.760Z,8.90
2018-03-26T11:35:38.203Z,9.00
2018-03-26T11:38:05.651Z,8.90
2018-03-26T11:40:33.101Z,8.90
2018-03-26T11:43:00.540Z,8.90
2018-03-26T11:45:27.997Z,9.00
2018-03-26T11:47:55.455Z,9.20
2018-03-26T11:50:22.910Z,9.40
2018-03-26T11:52:50.748Z,9.50
2018-03-26T11:55:18.191Z,9.40
2018-03-26T11:57:45.669Z,9.50
2018-03-26T12:00:13.078Z,9.70
2018-03-26T12:02:40.513Z,10.00
2018-03-26T12:05:07.955Z,10.20
2018-03-26T12:07:35.790Z,10.30
2018-03-26T12:10:03.236Z,10.30
2018-03-26T12:12:30.680Z,10.10
2018-03-26T12:14:58.121Z,9.80
2018-03-26T12:17:25.549Z,9.80
2018-03-26T12:20:04.806Z,9.80
2018-03-26T12:22:32.244Z,9.70
2018-03-26T12:25:12.741Z,10.10
2018-03-26T12:27:51.783Z,10.40
2018-03-26T12:30:22.873Z,10.40
2018-03-26T12:32:50.317Z,10.70
2018-03-26T12:35:29.980Z,10.70
2018-03-26T12:37:57.788Z,10.80
2018-03-26T12:40:36.956Z,10.80
2018-03-26T12:43:04.793Z,10.80
2018-03-26T12:45:44.021Z,10.80
2018-03-26T12:48:11.450Z,10.80
2018-03-26T12:50:50.713Z,10.80
2018-03-26T12:53:18.145Z,11.10
2018-03-26T12:55:45.584Z,11.10
2018-03-26T13:01:27.516Z,11.20
2018-03-26T13:03:54.957Z,11.20
2018-03-26T13:06:22.419Z,11.20
2018-03-26T13:08:49.861Z,11.40
2018-03-26T13:11:17.299Z,11.40
2018-03-26T13:13:45.165Z,11.10
2018-03-26T13:16:12.581Z,11.20
2018-03-26T13:18:40.009Z,11.00
2018-03-26T13:21:07.454Z,10.80
2018-03-26T13:23:34.901Z,10.80
2018-03-26T13:26:02.361Z,10.80
2018-03-26T13:28:30.231Z,11.00
2018-03-26T13:30:57.686Z,11.00
2018-03-26T13:33:25.120Z,11.00
2018-03-26T13:35:52.560Z,11.10
2018-03-26T13:38:19.991Z,11.20
2018-03-26T13:40:47.425Z,10.70
2018-03-26T13:43:14.861Z,10.60
2018-03-26T13:45:42.701Z,10.30
2018-03-26T13:48:10.141Z,10.30
2018-03-26T13:50:37.596Z,10.20
2018-03-26T13:53:05.076Z,10.00
2018-03-26T13:55:32.695Z,10.10
2018-03-26T13:58:00.137Z,10.20
2018-03-26T14:00:27.576Z,10.20
2018-03-26T14:02:55.008Z,10.00
2018-03-26T14:05:22.444Z,10.00
2018-03-26T14:07:49.877Z,10.20
2018-03-26T14:10:28.944Z,10.30
2018-03-26T14:13:08.202Z,10.20
2018-03-26T14:15:47.526Z,10.30
2018-03-26T14:18:14.956Z,10.70
2018-03-26T14:20:42.398Z,10.80
2018-03-26T14:23:09.824Z,10.90
2018-03-26T14:25:37.272Z,11.00
2018-03-26T14:28:04.703Z,11.00
2018-03-26T14:30:32.158Z,10.90
2018-03-26T14:32:59.616Z,10.90
2018-03-26T14:35:41.935Z,11.00
2018-03-26T14:38:09.762Z,10.90
2018-03-26T14:40:37.193Z,10.90
2018-03-26T14:43:04.666Z,10.80
2018-03-26T14:45:32.065Z,10.70
2018-03-26T14:47:59.928Z,10.50
2018-03-26T14:50:27.763Z,10.50
2018-03-26T14:52:55.208Z,10.50
2018-03-26T14:55:22.664Z,10.50
2018-03-26T14:57:50.080Z,10.40
2018-03-26T15:00:17.526Z,10.30
2018-03-26T15:02:44.996Z,10.10
2018-03-26T15:05:12.390Z,9.80
2018-03-26T15:07:39.832Z,9.80
2018-03-26T15:10:07.264Z,9.80
2018-03-26T15:12:34.703Z,9.90
2018-03-26T15:15:02.524Z,9.90
2018-03-26T15:17:30.002Z,9.90
2018-03-26T15:19:57.421Z,9.80
2018-03-26T15:22:24.864Z,9.80
2018-03-26T15:24:52.313Z,9.80
2018-03-26T15:27:19.783Z,9.70
2018-03-26T15:29:47.196Z,9.60
2018-03-26T15:32:14.638Z,9.50
2018-03-26T15:34:42.513Z,9.50
2018-03-26T15:37:09.948Z,9.50
2018-03-26T15:39:37.396Z,9.50
2018-03-26T15:42:04.934Z,9.60
2018-03-26T15:44:32.398Z,9.70
2018-03-26T15:47:00.719Z,10.00
2018-03-26T15:49:28.457Z,10.30
2018-03-26T15:51:55.923Z,10.30
2018-03-26T15:54:23.914Z,10.20
2018-03-26T15:56:51.509Z,10.00
2018-03-26T15:59:19.048Z,9.90
2018-03-26T16:01:46.520Z,9.90
2018-03-26T16:04:14.014Z,9.90
2018-03-26T16:06:41.491Z,10.00
2018-03-26T16:09:08.952Z,10.10
2018-03-26T16:11:36.412Z,10.00
2018-03-26T16:14:04.884Z,10.10
2018-03-26T16:16:32.499Z,10.10
2018-03-26T16:18:59.958Z,10.00
2018-03-26T16:23:48.858Z,10.10
2018-03-26T16:26:16.493Z,10.10
2018-03-26T16:28:43.981Z,10.00
2018-03-26T16:31:11.415Z,10.00
2018-03-26T16:33:38.877Z,10.00
2018-03-26T16:36:06.336Z,10.00
2018-03-26T16:38:33.832Z,10.20
2018-03-26T16:41:01.445Z,10.10
2018-03-26T16:43:33.238Z,10.00
2018-03-26T16:46:01.200Z,10.10
2018-03-26T16:48:28.648Z,10.00
2018-03-26T16:50:56.113Z,9.80
2018-03-26T16:53:23.565Z,9.60
2018-03-26T16:55:51.025Z,9.60
2018-03-26T16:58:18.483Z,9.80
2018-03-26T17:00:45.956Z,9.70
2018-03-26T17:03:13.405Z,9.60
2018-03-26T17:05:40.889Z,9.70
2018-03-26T17:08:08.370Z,9.80
2018-03-26T17:10:35.821Z,9.70
2018-03-26T17:13:03.295Z,9.50
2018-03-26T17:15:30.748Z,9.40
2018-03-26T17:17:58.203Z,9.50
2018-03-26T17:20:25.663Z,9.40
2018-03-26T17:22:53.551Z,9.30
2018-03-26T17:25:21.829Z,9.20
2018-03-26T17:27:49.345Z,9.10
2018-03-26T17:30:17.196Z,8.80
2018-03-26T17:32:45.061Z,8.70
2018-03-26T17:35:12.888Z,8.60
2018-03-26T17:37:40.374Z,8.60
2018-03-26T17:40:07.797Z,8.60
2018-03-26T17:42:35.258Z,8.60
2018-03-26T17:45:02.700Z,8.50
2018-03-26T17:47:30.139Z,8.50
2018-03-26T17:49:57.584Z,8.30
2018-03-26T17:52:25.024Z,8.10
2018-03-26T17:54:52.861Z,8.10
2018-03-26T17:57:20.305Z,8.10
2018-03-26T17:59:47.736Z,8.00
2018-03-26T18:02:15.188Z,8.00
2018-03-26T18:04:42.624Z,8.00
2018-03-26T18:07:10.121Z,8.00
2018-03-26T18:09:37.561Z,7.90
2018-03-26T18:12:05.017Z,7.90
2018-03-26T18:14:32.472Z,7.90
2018-03-26T18:16:59.904Z,7.90
2018-03-26T18:19:27.754Z,7.90
2018-03-26T18:21:55.176Z,7.90
2018-03-26T18:24:22.625Z,8.00
2018-03-26T18:26:50.051Z,8.00
2018-03-26T18:29:17.496Z,8.00
2018-03-26T18:31:44.945Z,8.00
2018-03-26T18:34:12.435Z,8.00
2018-03-26T18:36:39.856Z,7.90
2018-03-26T18:39:07.296Z,7.80
2018-03-26T18:41:34.720Z,7.80
2018-03-26T18:44:02.158Z,7.80
2018-03-26T18:46:29.588Z,7.80
2018-03-26T18:48:57.435Z,7.90
2018-03-26T18:51:24.864Z,7.90
2018-03-26T18:53:52.306Z,8.00
2018-03-26T18:56:19.735Z,8.10
2018-03-26T18:58:47.173Z,8.00
2018-03-26T19:01:14.609Z,7.90
2018-03-26T19:03:42.044Z,7.90
2018-03-26T19:06:09.505Z,7.90
2018-03-26T19:08:36.960Z,7.90
2018-03-26T19:11:04.418Z,7.80
2018-03-26T19:13:31.869Z,7.80
2018-03-26T19:15:59.293Z,7.80
2018-03-26T19:18:27.112Z,7.80
2018-03-26T19:20:54.550Z,7.80
2018-03-26T19:23:21.977Z,7.80
2018-03-26T19:25:49.459Z,7.80
2018-03-26T19:28:16.871Z,7.80
2018-03-26T19:30:44.296Z,7.80
2018-03-26T19:33:11.737Z,7.70
2018-03-26T19:35:39.163Z,7.60
2018-03-26T19:38:06.613Z,7.60
2018-03-26T19:40:34.057Z,7.50
2018-03-26T19:43:02.063Z,7.40
2018-03-26T19:45:29.474Z,7.40
2018-03-26T19:47:56.911Z,7.40
2018-03-26T19:50:24.334Z,7.30
2018-03-26T19:52:51.773Z,7.30
2018-03-26T19:55:19.203Z,7.30
2018-03-26T19:57:47.041Z,7.30
2018-03-26T20:00:14.473Z,7.30
2018-03-26T20:02:41.926Z,7.20
2018-03-26T20:05:09.358Z,7.10
2018-03-26T20:07:36.773Z,7.10
2018-03-26T20:10:04.208Z,7.00
2018-03-26T20:12:31.642Z,6.90
2018-03-26T20:14:59.208Z,6.90
2018-03-26T20:17:26.628Z,6.90
2018-03-26T20:19:54.066Z,6.80
2018-03-26T20:22:21.949Z,6.70
2018-03-26T20:24:49.375Z,6.80
2018-03-26T20:27:16.819Z,6.80
2018-03-26T20:29:44.252Z,6.60
2018-03-26T20:32:11.717Z,6.60
2018-03-26T20:34:39.265Z,6.50
2018-03-26T20:37:06.702Z,6.40
2018-03-26T20:39:34.148Z,6.30
2018-03-26T20:42:02.003Z,6.10
2018-03-26T20:44:29.598Z,6.10
2018-03-26T20:46:57.089Z,6.10
2018-03-26T20:49:24.523Z,6.00
2018-03-26T20:51:51.968Z,5.90
2018-03-26T20:54:19.408Z,5.60
2018-03-26T20:56:46.836Z,5.40
2018-03-26T20:59:19.189Z,5.20
2018-03-26T21:01:46.620Z,5.10
2018-03-26T21:04:14.054Z,5.00
2018-03-26T21:06:41.484Z,5.10
2018-03-26T21:09:08.918Z,5.20
2018-03-26T21:11:36.370Z,5.50
2018-03-26T21:14:03.844Z,5.40
2018-03-26T21:16:31.318Z,5.30
2018-03-26T21:18:59.154Z,5.10
2018-03-26T21:21:26.585Z,5.10
2018-03-26T21:23:54.026Z,5.00
2018-03-26T21:26:21.455Z,4.90
2018-03-26T21:28:49.357Z,4.80
2018-03-26T21:31:16.800Z,4.80
2018-03-26T21:33:44.237Z,4.90
2018-03-26T21:36:11.681Z,4.80
2018-03-26T21:38:39.508Z,4.80
2018-03-26T21:41:06.949Z,4.80
2018-03-26T21:43:34.378Z,4.80
2018-03-26T21:46:01.819Z,4.60
2018-03-26T21:48:29.245Z,4.50
2018-03-26T21:50:56.711Z,4.40
2018-03-26T21:53:24.129Z,4.40
2018-03-26T21:55:51.591Z,4.30
2018-03-26T21:58:18.996Z,4.30
2018-03-26T22:00:46.821Z,4.10
2018-03-26T22:03:14.254Z,4.10
2018-03-26T22:05:41.677Z,4.00
2018-03-26T22:08:09.550Z,3.80
2018-03-26T22:10:36.968Z,3.80
2018-03-26T22:13:04.401Z,3.70
2018-03-26T22:15:31.847Z,3.60
2018-03-26T22:17:59.292Z,3.60
2018-03-26T22:20:27.098Z,3.40
2018-03-26T22:22:54.533Z,3.40
2018-03-26T22:25:21.951Z,3.30
2018-03-26T22:27:49.376Z,3.10
2018-03-26T22:30:16.805Z,3.30
2018-03-26T22:32:44.238Z,3.30
2018-03-26T22:35:12.234Z,3.30
2018-03-26T22:37:39.660Z,3.30
2018-03-26T22:40:07.463Z,3.00
2018-03-26T22:42:34.908Z,3.00
2018-03-26T22:45:02.362Z,2.90
2018-03-26T22:47:29.781Z,2.80
2018-03-26T22:49:57.601Z,2.70
2018-03-26T22:52:25.032Z,2.70
2018-03-26T22:54:52.461Z,2.70
2018-03-26T22:57:19.892Z,2.60
2018-03-26T23:12:43.321Z,2.20
2018-03-26T23:15:10.789Z,2.20
2018-03-26T23:17:38.216Z,2.10
2018-03-26T23:20:05.655Z,2.20
2018-03-26T23:22:45.516Z,2.10
2018-03-26T23:25:12.980Z,2.20
2018-03-26T23:27:40.410Z,2.00
2018-03-26T23:30:07.845Z,1.80
2018-03-26T23:32:35.261Z,1.80
2018-03-26T23:35:02.733Z,1.80
2018-03-26T23:37:30.162Z,1.80
2018-03-26T23:39:57.595Z,1.70
2018-03-26T23:42:25.017Z,1.60
2018-03-26T23:44:52.457Z,1.50
2018-03-26T23:47:19.884Z,1.40
2018-03-26T23:49:47.324Z,1.40
2018-03-26T23:52:14.763Z,1.40
2018-03-26T23:54:42.184Z,1.40
2018-03-26T23:57:09.596Z,1.40
2018-03-26T23:59:37.025Z,1.40
